Time;durP1;ratioP1;P1;durP2;ratioP2;P2;SDS_P1;SDS_P2;PMS_P1;PMS_P2;Temp;Humidity;BMP_temperature;BMP_pressure;BME280_temperature;BME280_humidity;BME280_pressure;Samples;Min_cycle;Max_cycle;Signal;HPM_P1;HPM_P2
2022/07/01 00:01:56;;;;;;;7.17;2.80;;;18.10;99.90;;;;;;5033793;28;20213;-77
2022/07/01 00:04:27;;;;;;;4.30;2.80;;;18.10;99.90;;;;;;5033512;28;20218;-77
2022/07/01 00:06:56;;;;;;;3.83;2.70;;;18.10;99.90;;;;;;5033891;28;20598;-76
2022/07/01 00:09:24;;;;;;;7.07;2.80;;;18.20;99.90;;;;;;5033658;28;20278;-75
2022/07/01 00:11:52;;;;;;;4.37;2.50;;;18.20;99.90;;;;;;5033496;28;20259;-76
2022/07/01 00:14:22;;;;;;;4.23;2.50;;;18.20;99.90;;;;;;5033874;28;20227;-75
2022/07/01 00:16:51;;;;;;;4.23;2.47;;;18.20;99.90;;;;;;5033721;28;20209;-75
2022/07/01 00:19:20;;;;;;;6.30;2.40;;;18.20;99.90;;;;;;5033062;28;20211;-74
2022/07/01 00:21:49;;;;;;;6.90;2.67;;;18.20;99.90;;;;;;5032651;28;20205;-76
2022/07/01 00:24:18;;;;;;;4.30;2.50;;;18.20;99.90;;;;;;5033607;28;20201;-76
2022/07/01 00:26:46;;;;;;;6.23;2.97;;;18.20;99.90;;;;;;5033336;28;20252;-76
2022/07/01 00:29:14;;;;;;;5.77;2.80;;;18.20;99.90;;;;;;5048294;28;20226;-75
2022/07/01 00:31:43;;;;;;;5.70;3.03;;;18.20;99.90;;;;;;5053532;28;20212;-76
2022/07/01 00:34:11;;;;;;;9.60;3.17;;;18.20;99.90;;;;;;5052848;28;20216;-76
2022/07/01 00:36:39;;;;;;;6.07;3.33;;;18.20;99.90;;;;;;5049588;28;20220;-73
2022/07/01 00:39:09;;;;;;;8.43;3.83;;;18.20;99.90;;;;;;5032862;28;20193;-75
2022/07/01 00:41:37;;;;;;;6.40;3.97;;;18.20;99.90;;;;;;5032691;28;20756;-75
2022/07/01 00:44:06;;;;;;;4.93;3.60;;;18.20;99.90;;;;;;5032975;28;20612;-77
2022/07/01 00:46:35;;;;;;;7.20;3.60;;;18.20;99.90;;;;;;5032753;28;20201;-78
2022/07/01 00:49:03;;;;;;;5.93;4.20;;;18.20;99.90;;;;;;5032393;28;20248;-74
2022/07/01 00:51:31;;;;;;;8.73;3.93;;;18.20;99.90;;;;;;5032581;28;20208;-77
2022/07/01 00:54:01;;;;;;;9.07;4.03;;;18.30;99.90;;;;;;5033080;28;20662;-74
2022/07/01 00:56:31;;;;;;;6.30;3.60;;;18.30;99.90;;;;;;5043779;28;20200;-75
2022/07/01 00:59:00;;;;;;;9.57;4.03;;;18.30;99.90;;;;;;5059724;28;20188;-80
2022/07/01 01:01:29;;;;;;;5.80;3.83;;;18.30;99.90;;;;;;5064315;28;20287;-76
2022/07/01 01:03:58;;;;;;;6.53;3.80;;;18.40;99.90;;;;;;5052567;28;20192;-77
2022/07/01 01:06:27;;;;;;;8.03;4.10;;;18.30;99.90;;;;;;5044814;28;20219;-75
2022/07/01 01:08:58;;;;;;;6.40;3.60;;;18.30;99.90;;;;;;5055565;28;20266;-75
2022/07/01 01:11:27;;;;;;;5.30;3.70;;;18.30;99.90;;;;;;5051897;28;20258;-77
2022/07/01 01:13:56;;;;;;;7.37;3.53;;;18.30;99.90;;;;;;5052181;28;20315;-76
2022/07/01 01:16:25;;;;;;;4.77;3.50;;;18.20;99.90;;;;;;5052124;28;20309;-76
2022/07/01 01:18:55;;;;;;;3.10;2.80;;;18.10;99.90;;;;;;5053288;28;20216;-75
2022/07/01 01:21:26;;;;;;;4.77;2.83;;;18.10;99.90;;;;;;5053411;28;20685;-75
2022/07/01 01:23:54;;;;;;;4.77;2.50;;;18.00;99.90;;;;;;5053059;28;20196;-75
2022/07/01 01:26:25;;;;;;;3.73;2.50;;;18.00;99.90;;;;;;5052225;28;20220;-74
2022/07/01 01:28:53;;;;;;;2.53;2.20;;;18.00;99.90;;;;;;5051934;28;20314;-75
2022/07/01 01:31:29;;;;;;;2.67;2.20;;;17.90;99.90;;;;;;5051010;28;20287;-74
2022/07/01 01:33:58;;;;;;;5.00;2.30;;;18.00;99.90;;;;;;5032163;28;20216;-74
2022/07/01 01:36:29;;;;;;;3.70;2.47;;;18.00;99.90;;;;;;5032828;28;20287;-76
2022/07/01 01:38:58;;;;;;;5.10;2.37;;;18.00;99.90;;;;;;5051934;28;20188;-75
2022/07/01 01:41:26;;;;;;;5.63;2.40;;;18.00;99.90;;;;;;5051458;28;20231;-75
2022/07/01 01:43:55;;;;;;;5.00;2.60;;;18.00;99.90;;;;;;5051306;28;20235;-73
2022/07/01 01:46:23;;;;;;;3.83;2.50;;;18.00;99.90;;;;;;5051678;28;20247;-75
2022/07/01 01:48:52;;;;;;;5.10;2.50;;;18.00;99.90;;;;;;5051420;28;20239;-75
2022/07/01 01:51:20;;;;;;;2.80;2.30;;;18.10;99.90;;;;;;5042179;28;20263;-74
2022/07/01 01:53:50;;;;;;;4.63;2.60;;;18.00;99.90;;;;;;5072282;28;20285;-74
2022/07/01 01:56:18;;;;;;;4.40;2.40;;;18.10;99.90;;;;;;5071826;28;20606;-75
2022/07/01 01:58:46;;;;;;;3.47;2.33;;;18.00;99.90;;;;;;5071623;28;20777;-74
2022/07/01 02:01:16;;;;;;;4.10;2.30;;;18.00;99.90;;;;;;5051718;28;20259;-75
2022/07/01 02:03:46;;;;;;;4.40;2.50;;;18.00;99.90;;;;;;5051645;28;20614;-74
2022/07/01 02:06:16;;;;;;;3.13;2.30;;;18.00;99.90;;;;;;5051920;28;20219;-73
2022/07/01 02:08:44;;;;;;;7.30;2.70;;;18.00;99.90;;;;;;5051683;28;20307;-74
2022/07/01 02:11:14;;;;;;;5.47;2.73;;;18.00;99.90;;;;;;5051672;28;20204;-74
2022/07/01 02:13:44;;;;;;;6.47;2.60;;;17.90;99.90;;;;;;5051845;28;20254;-73
2022/07/01 02:16:12;;;;;;;4.33;2.73;;;17.90;99.90;;;;;;5051818;28;20266;-76
2022/07/01 02:18:40;;;;;;;4.87;2.70;;;17.90;99.90;;;;;;5051887;28;20287;-75
2022/07/01 02:21:09;;;;;;;6.00;2.50;;;17.80;99.90;;;;;;5051885;28;20212;-73
2022/07/01 02:23:38;;;;;;;3.60;2.37;;;17.80;99.90;;;;;;5051679;28;20569;-75
2022/07/01 02:26:06;;;;;;;5.47;2.60;;;17.70;99.90;;;;;;5052330;28;20212;-75
2022/07/01 02:28:36;;;;;;;6.60;2.77;;;17.60;99.90;;;;;;5055033;28;20248;-73
2022/07/01 02:31:04;;;;;;;4.13;2.60;;;17.50;99.90;;;;;;5055194;28;20254;-74
2022/07/01 02:33:32;;;;;;;4.40;2.57;;;17.50;99.90;;;;;;5035265;28;20745;-75
2022/07/01 02:36:01;;;;;;;6.20;2.73;;;17.40;99.90;;;;;;5035132;28;20303;-75
2022/07/01 02:38:30;;;;;;;4.63;2.77;;;17.30;99.90;;;;;;5035249;28;20260;-76
2022/07/01 02:40:58;;;;;;;4.30;2.50;;;17.30;99.90;;;;;;5035031;28;20680;-77
2022/07/01 02:43:26;;;;;;;4.23;2.40;;;17.20;99.90;;;;;;5035029;28;20698;-75
2022/07/01 02:45:57;;;;;;;3.97;2.00;;;17.20;99.90;;;;;;5035124;28;20251;-75
2022/07/01 02:48:26;;;;;;;2.87;2.10;;;17.20;99.90;;;;;;5034958;28;20699;-76
2022/07/01 02:50:54;;;;;;;4.00;2.00;;;17.10;99.90;;;;;;5035230;28;20259;-74
2022/07/01 02:53:22;;;;;;;1.87;1.60;;;17.10;99.90;;;;;;5035196;28;20219;-74
2022/07/01 02:55:51;;;;;;;1.60;1.47;;;17.10;99.90;;;;;;5035062;28;20205;-75
2022/07/01 02:58:20;;;;;;;4.23;1.50;;;17.00;99.90;;;;;;5034793;28;20212;-76
2022/07/01 03:00:52;;;;;;;2.30;1.43;;;17.10;99.90;;;;;;5034582;28;20947;-73
2022/07/01 03:03:21;;;;;;;5.93;1.33;;;17.00;99.90;;;;;;5034921;28;20209;-75
2022/07/01 03:05:50;;;;;;;1.70;1.30;;;17.00;99.90;;;;;;5034644;28;20280;-76
2022/07/01 03:08:18;;;;;;;2.97;1.23;;;16.90;99.90;;;;;;5047882;28;20211;-74
2022/07/01 03:10:46;;;;;;;1.53;1.10;;;16.90;99.90;;;;;;5053894;28;20777;-74
2022/07/01 03:13:14;;;;;;;3.17;1.00;;;16.90;99.90;;;;;;5054359;28;20247;-76
2022/07/01 03:15:42;;;;;;;2.07;1.00;;;17.00;99.90;;;;;;5054810;28;20236;-75
2022/07/01 03:18:10;;;;;;;1.47;1.20;;;17.00;99.90;;;;;;5055194;28;20212;-75
2022/07/01 03:20:40;;;;;;;2.03;0.93;;;17.00;99.90;;;;;;5052465;28;20283;-74
2022/07/01 03:23:08;;;;;;;1.53;1.40;;;17.10;99.90;;;;;;5048572;28;20204;-77
2022/07/01 03:25:37;;;;;;;1.00;0.93;;;17.10;99.90;;;;;;5054352;28;20235;-76
2022/07/01 03:28:05;;;;;;;1.47;0.97;;;17.10;99.90;;;;;;5045248;28;20209;-74
2022/07/01 03:30:34;;;;;;;1.20;1.10;;;17.10;99.90;;;;;;5053625;28;20308;-75
2022/07/01 03:33:02;;;;;;;1.10;1.00;;;17.20;99.90;;;;;;5054119;28;20204;-78
2022/07/01 03:35:36;;;;;;;1.77;1.20;;;17.20;99.90;;;;;;5054050;28;20208;-73
2022/07/01 03:38:07;;;;;;;3.17;1.30;;;17.20;99.90;;;;;;5053697;28;20231;-73
2022/07/01 03:40:35;;;;;;;1.70;1.17;;;17.20;99.90;;;;;;5050840;28;20677;-74
2022/07/01 03:43:04;;;;;;;1.53;1.30;;;17.20;99.90;;;;;;5053747;28;20200;-79
2022/07/01 03:45:32;;;;;;;2.10;1.30;;;17.20;99.90;;;;;;5053502;28;20247;-74
2022/07/01 03:48:02;;;;;;;1.23;1.10;;;17.20;99.90;;;;;;5053657;28;20319;-73
2022/07/01 03:50:30;;;;;;;1.30;1.20;;;17.20;99.90;;;;;;5053346;28;20287;-74
2022/07/01 03:55:45;;;;;;;2.73;1.13;;;17.30;99.90;;;;;;5053201;28;20207;-78
2022/07/01 03:58:14;;;;;;;1.37;1.07;;;17.30;99.90;;;;;;5053398;28;20246;-74
2022/07/01 04:00:42;;;;;;;0.97;0.97;;;17.30;99.90;;;;;;5053414;28;20669;-74
2022/07/01 04:03:10;;;;;;;2.47;1.37;;;17.40;99.90;;;;;;5052815;28;20263;-76
2022/07/01 04:05:40;;;;;;;4.33;2.33;;;17.40;99.90;;;;;;5053204;28;20628;-76
2022/07/01 04:08:10;;;;;;;1.23;1.00;;;17.50;99.90;;;;;;5053465;28;20235;-74
2022/07/01 04:10:41;;;;;;;1.20;1.00;;;17.60;99.90;;;;;;5053031;28;20212;-74
2022/07/01 04:13:11;;;;;;;1.70;1.00;;;17.60;99.90;;;;;;5050678;28;20211;-76
2022/07/01 04:15:59;;;;;;;1.30;1.00;;;17.70;99.90;;;;;;5050552;28;20263;-74
2022/07/01 04:18:28;;;;;;;1.07;1.07;;;17.80;99.90;;;;;;5048519;28;20235;-79
2022/07/01 04:23:45;;;;;;;1.40;1.03;;;17.80;99.90;;;;;;5024067;28;20208;-74
2022/07/01 04:26:13;;;;;;;1.63;1.20;;;17.90;99.90;;;;;;5053480;28;20230;-76
2022/07/01 04:29:03;;;;;;;1.53;1.23;;;17.90;99.90;;;;;;5051375;28;20211;-78
2022/07/01 04:31:31;;;;;;;1.53;1.10;;;17.90;99.90;;;;;;5050528;28;21062;-80
2022/07/01 04:34:00;;;;;;;1.50;1.40;;;18.00;99.90;;;;;;5052845;28;20212;-76
2022/07/01 04:36:28;;;;;;;1.20;1.10;;;17.90;99.90;;;;;;5047517;28;20633;-75
2022/07/01 04:38:56;;;;;;;1.40;1.17;;;17.90;99.90;;;;;;5052261;28;20674;-75
2022/07/01 04:44:12;;;;;;;2.30;1.20;;;17.90;99.90;;;;;;5048228;28;20204;-75
2022/07/01 04:46:40;;;;;;;1.30;1.20;;;17.90;99.90;;;;;;5051322;28;20686;-74
2022/07/01 04:49:08;;;;;;;2.97;1.50;;;17.80;99.90;;;;;;5051219;28;20659;-76
2022/07/01 04:51:36;;;;;;;2.23;1.23;;;17.90;99.90;;;;;;5051877;28;20771;-75
2022/07/01 04:54:06;;;;;;;1.40;1.30;;;17.90;99.90;;;;;;5052506;28;20214;-73
2022/07/01 04:56:35;;;;;;;2.40;1.73;;;17.90;99.90;;;;;;5052094;28;20678;-75
2022/07/01 04:59:12;;;;;;;2.47;1.30;;;17.90;99.90;;;;;;5049774;28;20666;-76
2022/07/01 05:01:41;;;;;;;1.43;1.10;;;17.80;99.90;;;;;;5051519;28;20197;-76
2022/07/01 05:04:10;;;;;;;1.30;1.20;;;17.90;99.90;;;;;;5052299;28;20240;-74
2022/07/01 05:06:42;;;;;;;3.80;1.20;;;17.90;99.90;;;;;;5052505;28;20211;-73
2022/07/01 05:09:10;;;;;;;1.40;1.30;;;17.90;99.90;;;;;;5051744;28;20327;-73
2022/07/01 05:11:39;;;;;;;1.93;1.30;;;17.90;99.90;;;;;;5052642;28;20252;-76
2022/07/01 05:14:08;;;;;;;2.00;1.30;;;17.90;99.90;;;;;;5052002;28;20200;-76
2022/07/01 05:16:37;;;;;;;1.47;1.30;;;18.00;99.90;;;;;;5053044;28;20251;-73
2022/07/01 05:21:58;;;;;;;1.70;1.17;;;18.00;99.90;;;;;;5049423;28;20729;-75
2022/07/01 05:24:30;;;;;;;1.57;1.20;;;18.10;99.90;;;;;;5051952;28;20200;-73
2022/07/01 05:27:01;;;;;;;1.63;1.40;;;18.10;99.90;;;;;;5051706;28;20199;-74
2022/07/01 05:29:29;;;;;;;1.43;1.33;;;18.20;99.90;;;;;;5052161;28;20351;-73
2022/07/01 05:31:59;;;;;;;2.27;1.30;;;18.20;99.90;;;;;;5052079;28;20224;-75
2022/07/01 05:34:27;;;;;;;3.00;1.60;;;18.20;99.90;;;;;;5052123;28;20201;-73
2022/07/01 05:36:55;;;;;;;3.00;1.20;;;18.30;99.90;;;;;;5052070;28;20238;-73
2022/07/01 05:39:25;;;;;;;1.60;1.47;;;18.30;99.90;;;;;;5051468;28;20204;-74
2022/07/01 05:41:53;;;;;;;1.93;1.20;;;18.40;99.90;;;;;;5050428;28;20212;-75
2022/07/01 05:44:22;;;;;;;1.93;1.23;;;18.60;99.90;;;;;;5049360;28;20682;-75
2022/07/01 05:46:50;;;;;;;1.30;1.20;;;18.70;99.90;;;;;;5051793;28;20231;-75
2022/07/01 05:49:20;;;;;;;1.00;1.00;;;18.90;99.90;;;;;;5052052;28;20654;-74
2022/07/01 05:51:48;;;;;;;1.37;1.13;;;19.20;99.90;;;;;;5051877;28;20216;-74
2022/07/01 05:54:16;;;;;;;1.13;1.03;;;19.30;99.90;;;;;;5052493;28;20567;-73
2022/07/01 05:56:44;;;;;;;2.20;1.37;;;19.50;99.90;;;;;;5047045;28;20228;-73
2022/07/01 05:59:14;;;;;;;0.93;0.93;;;19.40;99.90;;;;;;5054827;28;20230;-75
2022/07/01 06:01:42;;;;;;;1.33;1.20;;;19.40;99.90;;;;;;5058126;28;20207;-75
2022/07/01 06:04:10;;;;;;;1.60;1.30;;;19.30;99.90;;;;;;5060573;28;20709;-79
2022/07/01 06:06:40;;;;;;;1.50;1.40;;;19.20;99.90;;;;;;5063593;28;20304;-75
2022/07/01 06:09:09;;;;;;;1.50;1.30;;;19.20;99.90;;;;;;5061277;28;20212;-75
2022/07/01 06:11:37;;;;;;;1.23;1.07;;;19.30;99.90;;;;;;5064156;28;20212;-76
2022/07/01 06:14:05;;;;;;;2.47;1.30;;;19.40;99.90;;;;;;5058413;28;20227;-77
2022/07/01 06:16:33;;;;;;;1.37;1.10;;;19.50;99.90;;;;;;5057888;28;20204;-77
2022/07/01 06:19:02;;;;;;;1.93;1.30;;;19.50;99.90;;;;;;5058853;28;20204;-75
2022/07/01 06:21:30;;;;;;;2.03;1.13;;;19.30;99.90;;;;;;5057578;28;20205;-76
2022/07/01 06:24:00;;;;;;;1.20;1.10;;;19.10;99.90;;;;;;5057360;28;20231;-76
2022/07/01 06:26:28;;;;;;;2.60;1.47;;;19.10;99.90;;;;;;5055833;28;20659;-79
2022/07/01 06:28:56;;;;;;;2.20;1.33;;;19.00;99.90;;;;;;5057412;28;20200;-75
2022/07/01 06:31:25;;;;;;;1.50;1.40;;;19.10;99.90;;;;;;5054044;28;20244;-77
2022/07/01 06:33:53;;;;;;;2.10;1.30;;;19.00;99.90;;;;;;5057463;28;20201;-77
2022/07/01 06:36:21;;;;;;;2.90;1.37;;;19.00;99.90;;;;;;5057868;28;20211;-77
2022/07/01 06:38:49;;;;;;;1.77;1.40;;;19.00;99.90;;;;;;5056329;28;20606;-77
2022/07/01 06:41:28;;;;;;;1.53;1.30;;;18.80;99.90;;;;;;5057094;28;20285;-77
2022/07/01 06:43:58;;;;;;;1.30;1.20;;;18.80;99.90;;;;;;5056286;28;20200;-75
2022/07/01 06:46:27;;;;;;;2.20;1.57;;;18.70;99.90;;;;;;5053314;28;20255;-75
2022/07/01 06:48:56;;;;;;;2.40;1.40;;;18.60;99.90;;;;;;5055199;28;20593;-77
2022/07/01 06:51:24;;;;;;;2.33;1.40;;;18.60;99.90;;;;;;5055716;28;20220;-80
2022/07/01 06:53:53;;;;;;;2.93;1.30;;;18.70;99.90;;;;;;5056730;28;20254;-74
2022/07/01 06:56:23;;;;;;;3.17;1.50;;;18.70;99.90;;;;;;5058182;28;20197;-75
2022/07/01 06:58:51;;;;;;;3.87;1.70;;;18.70;99.90;;;;;;5057028;28;20200;-76
2022/07/01 07:01:19;;;;;;;5.10;1.50;;;18.60;99.90;;;;;;5056360;28;20689;-76
2022/07/01 07:03:48;;;;;;;1.70;1.60;;;18.70;99.90;;;;;;5055989;28;20251;-78
2022/07/01 07:06:16;;;;;;;1.63;1.30;;;18.60;99.90;;;;;;5055200;28;20686;-76
2022/07/01 07:08:45;;;;;;;1.60;1.50;;;18.70;99.90;;;;;;5055803;28;20205;-76
2022/07/01 07:11:14;;;;;;;1.63;1.30;;;18.80;99.90;;;;;;5055154;28;20212;-76
2022/07/01 07:13:44;;;;;;;2.40;1.70;;;19.00;99.90;;;;;;5054584;28;20296;-76
2022/07/01 07:16:12;;;;;;;2.00;1.43;;;19.30;99.90;;;;;;5055406;28;20693;-76
2022/07/01 07:18:41;;;;;;;1.40;1.30;;;19.40;99.90;;;;;;5055230;28;20213;-78
2022/07/01 07:21:09;;;;;;;5.10;1.60;;;19.50;99.90;;;;;;5056149;28;20215;-77
2022/07/01 07:23:37;;;;;;;1.70;1.33;;;19.70;99.90;;;;;;5056053;28;20216;-76
2022/07/01 07:26:06;;;;;;;2.47;1.40;;;19.80;99.90;;;;;;5046383;28;20200;-76
2022/07/01 07:28:34;;;;;;;1.60;1.27;;;19.80;99.90;;;;;;5055230;28;20231;-76
2022/07/01 07:31:03;;;;;;;1.30;1.20;;;19.80;99.90;;;;;;5055959;28;20208;-76
2022/07/01 07:33:32;;;;;;;2.13;1.23;;;19.90;99.90;;;;;;5054550;28;20250;-76
2022/07/01 07:36:01;;;;;;;3.27;1.37;;;20.00;99.90;;;;;;5054820;28;20204;-75
2022/07/01 07:38:29;;;;;;;3.23;1.50;;;20.00;99.90;;;;;;5052741;28;20228;-77
2022/07/01 07:41:00;;;;;;;2.53;1.30;;;19.90;99.90;;;;;;5054930;28;20308;-78
2022/07/01 07:43:29;;;;;;;1.97;1.50;;;19.90;99.90;;;;;;5050511;28;20196;-76
2022/07/01 07:45:57;;;;;;;4.10;1.47;;;19.90;99.90;;;;;;5055128;28;20296;-77
2022/07/01 07:48:27;;;;;;;2.57;1.30;;;19.90;99.90;;;;;;5055226;28;20195;-76
2022/07/01 07:50:55;;;;;;;2.27;1.30;;;19.90;99.90;;;;;;5054816;28;20196;-76
2022/07/01 07:53:24;;;;;;;1.47;1.37;;;19.90;99.90;;;;;;5054258;28;20216;-79
2022/07/01 07:55:52;;;;;;;2.13;1.57;;;20.20;99.90;;;;;;5049395;28;20214;-75
2022/07/01 07:58:20;;;;;;;3.47;1.50;;;20.20;99.90;;;;;;5054180;28;20698;-76
2022/07/01 08:00:49;;;;;;;1.90;1.57;;;20.10;99.90;;;;;;5053609;28;20200;-75
2022/07/01 08:03:17;;;;;;;1.80;1.70;;;19.90;99.90;;;;;;5053901;28;20237;-77
2022/07/01 08:05:46;;;;;;;1.77;1.60;;;19.60;99.90;;;;;;5054321;28;20200;-75
2022/07/01 08:08:15;;;;;;;18.17;3.10;;;19.20;99.90;;;;;;5054211;28;20227;-76
2022/07/01 08:10:50;;;;;;;9.87;1.80;;;19.00;99.90;;;;;;5037757;28;20254;-76
2022/07/01 08:13:18;;;;;;;14.73;3.27;;;18.80;99.90;;;;;;5054426;28;20224;-76
2022/07/01 08:15:46;;;;;;;7.03;1.87;;;18.60;99.90;;;;;;5054039;28;20295;-75
2022/07/01 08:18:14;;;;;;;4.37;2.30;;;18.50;99.90;;;;;;5053779;28;20275;-75
2022/07/01 08:20:42;;;;;;;3.23;1.70;;;18.40;99.90;;;;;;5053592;28;20278;-75
2022/07/01 08:23:12;;;;;;;11.03;2.63;;;18.20;99.90;;;;;;5041005;28;20236;-76
2022/07/01 08:25:41;;;;;;;6.17;2.10;;;18.10;99.90;;;;;;5046305;28;20701;-76
2022/07/01 08:28:09;;;;;;;13.43;3.03;;;18.00;99.90;;;;;;5054021;28;20204;-75
2022/07/01 08:30:38;;;;;;;5.60;2.13;;;17.80;99.90;;;;;;5054200;28;20204;-76
2022/07/01 08:33:07;;;;;;;3.00;1.70;;;17.80;99.90;;;;;;5055050;28;20311;-74
2022/07/01 08:35:35;;;;;;;2.50;1.60;;;17.70;99.90;;;;;;5054738;28;20212;-74
2022/07/01 08:38:05;;;;;;;2.57;1.33;;;17.60;99.90;;;;;;5055162;28;20204;-76
2022/07/01 08:40:36;;;;;;;3.40;1.40;;;17.50;99.90;;;;;;5034735;28;20236;-76
2022/07/01 08:43:07;;;;;;;2.70;1.27;;;17.40;99.90;;;;;;5050448;28;20192;-76
2022/07/01 08:45:37;;;;;;;1.43;1.30;;;17.40;99.90;;;;;;5055526;28;20258;-75
2022/07/01 08:48:07;;;;;;;1.60;1.40;;;17.20;99.90;;;;;;5062913;28;20207;-76
2022/07/01 08:50:38;;;;;;;2.53;1.50;;;17.20;99.90;;;;;;5056343;28;20254;-75
2022/07/01 08:53:08;;;;;;;3.13;1.60;;;17.20;99.90;;;;;;5054953;28;20208;-76
2022/07/01 08:58:20;;;;;;;1.83;1.10;;;17.00;99.90;;;;;;5054295;28;20267;-75
2022/07/01 09:00:49;;;;;;;6.40;1.33;;;16.80;99.90;;;;;;5050856;28;20204;-74
2022/07/01 09:03:22;;;;;;;2.23;1.37;;;16.70;99.90;;;;;;5053369;28;20658;-75
2022/07/01 09:05:54;;;;;;;1.43;1.23;;;16.40;99.90;;;;;;5047217;28;20663;-76
2022/07/01 09:08:28;;;;;;;1.20;1.20;;;16.20;99.90;;;;;;5053309;28;20200;-75
2022/07/01 09:11:12;;;;;;;1.70;1.20;;;16.10;99.90;;;;;;5052900;28;20774;-74
2022/07/01 09:13:40;;;;;;;2.87;1.10;;;15.90;99.90;;;;;;5051787;28;20600;-75
2022/07/01 09:16:13;;;;;;;3.10;1.00;;;15.80;99.90;;;;;;5048983;28;20203;-74
2022/07/01 09:18:48;;;;;;;1.80;0.90;;;15.70;99.90;;;;;;5055015;28;20200;-76
2022/07/01 09:21:16;;;;;;;2.07;0.80;;;15.60;99.90;;;;;;5047820;28;20653;-75
2022/07/01 09:23:45;;;;;;;1.80;0.87;;;15.40;99.90;;;;;;5049353;28;20262;-75
2022/07/01 09:26:21;;;;;;;0.90;0.87;;;15.40;99.90;;;;;;5052984;28;20211;-76
2022/07/01 09:28:55;;;;;;;2.73;1.10;;;15.40;99.90;;;;;;5053132;28;20192;-75
2022/07/01 09:31:23;;;;;;;1.63;1.17;;;15.40;99.90;;;;;;5053269;28;20216;-75
2022/07/01 09:34:04;;;;;;;2.43;1.30;;;15.20;99.90;;;;;;5033375;28;20248;-77
2022/07/01 09:36:33;;;;;;;1.30;1.20;;;15.10;99.90;;;;;;5049997;28;20266;-75
2022/07/01 09:39:05;;;;;;;1.23;1.13;;;15.00;99.90;;;;;;5052170;28;20200;-75
2022/07/01 09:41:57;;;;;;;1.90;1.30;;;14.90;99.90;;;;;;5041117;28;20250;-75
2022/07/01 09:44:28;;;;;;;1.37;1.27;;;14.90;99.90;;;;;;5054609;28;20193;-75
2022/07/01 09:46:58;;;;;;;2.47;1.57;;;14.90;99.90;;;;;;5055764;28;20196;-75
2022/07/01 09:49:27;;;;;;;2.87;1.53;;;15.00;99.90;;;;;;5053208;28;20536;-75
2022/07/01 09:51:55;;;;;;;2.53;1.40;;;15.00;99.90;;;;;;5052183;28;20274;-74
2022/07/01 09:54:23;;;;;;;1.80;1.40;;;14.90;99.90;;;;;;5052118;28;20228;-74
2022/07/01 09:56:51;;;;;;;1.47;1.37;;;14.90;99.90;;;;;;5052106;28;20254;-75
2022/07/01 09:59:21;;;;;;;3.23;1.50;;;15.00;99.90;;;;;;5052729;28;20232;-78
2022/07/01 10:01:50;;;;;;;2.23;1.50;;;15.00;99.90;;;;;;5052485;28;20282;-76
2022/07/01 10:04:19;;;;;;;3.53;1.23;;;15.00;99.90;;;;;;5052773;28;20250;-75
2022/07/01 10:07:16;;;;;;;2.57;1.43;;;15.20;99.90;;;;;;5052220;28;20200;-75
2022/07/01 10:10:10;;;;;;;1.47;1.37;;;15.20;99.90;;;;;;5050755;28;20662;-76
2022/07/01 10:12:43;;;;;;;1.60;1.50;;;15.30;99.90;;;;;;5050288;28;20197;-75
2022/07/01 10:15:18;;;;;;;4.17;1.30;;;15.20;99.90;;;;;;5049484;28;20219;-74
2022/07/01 10:17:49;;;;;;;2.17;1.40;;;15.30;99.90;;;;;;5051642;28;20188;-76
2022/07/01 10:20:19;;;;;;;1.10;1.10;;;15.40;99.90;;;;;;5049804;28;20259;-75
2022/07/01 10:22:52;;;;;;;1.40;1.20;;;15.40;99.90;;;;;;5049220;28;20234;-74
2022/07/01 10:25:36;;;;;;;2.10;1.20;;;15.50;99.90;;;;;;5051759;28;20266;-74
2022/07/01 10:28:29;;;;;;;1.20;1.10;;;15.60;99.90;;;;;;5045349;28;20200;-77
2022/07/01 10:31:01;;;;;;;1.40;1.10;;;15.60;99.90;;;;;;5049758;28;20208;-75
2022/07/01 10:33:36;;;;;;;1.20;1.10;;;15.70;99.90;;;;;;5051598;28;20299;-77
2022/07/01 10:36:07;;;;;;;1.10;1.00;;;15.80;99.90;;;;;;5051503;28;20242;-76
2022/07/01 10:38:36;;;;;;;0.80;0.80;;;15.80;99.90;;;;;;5049845;28;20556;-77
2022/07/01 10:41:11;;;;;;;1.13;0.90;;;15.80;99.90;;;;;;5051339;28;20259;-75
2022/07/01 10:43:41;;;;;;;1.87;0.77;;;15.80;99.90;;;;;;5051517;28;20203;-74
2022/07/01 10:46:11;;;;;;;0.60;0.60;;;15.80;99.90;;;;;;5052399;28;20197;-74
2022/07/01 10:48:40;;;;;;;1.27;1.00;;;15.80;99.90;;;;;;5054735;28;20200;-74
2022/07/01 10:51:09;;;;;;;0.90;0.90;;;15.60;99.90;;;;;;5055321;28;20274;-74
2022/07/01 10:53:47;;;;;;;1.17;1.07;;;15.50;99.90;;;;;;5054830;28;20294;-75
2022/07/01 10:56:39;;;;;;;1.13;1.00;;;15.40;99.90;;;;;;5054595;28;20280;-75
2022/07/01 10:59:08;;;;;;;1.70;1.00;;;15.40;99.90;;;;;;5055132;28;20196;-75
2022/07/01 11:01:38;;;;;;;2.47;1.20;;;15.40;99.90;;;;;;5054728;28;20713;-76
2022/07/01 11:04:06;;;;;;;1.93;1.50;;;15.40;99.90;;;;;;5055139;28;20224;-75
2022/07/01 11:06:38;;;;;;;3.47;2.70;;;15.30;99.90;;;;;;5055178;28;20210;-74
2022/07/01 11:09:07;;;;;;;2.07;1.30;;;15.30;99.90;;;;;;5054641;28;20207;-74
2022/07/01 11:11:35;;;;;;;1.10;1.00;;;15.20;99.90;;;;;;5054842;28;20208;-74
2022/07/01 11:14:04;;;;;;;1.50;1.40;;;15.10;99.90;;;;;;5054677;28;20619;-75
2022/07/01 11:16:32;;;;;;;2.00;1.23;;;15.00;99.90;;;;;;5052363;28;20204;-76
2022/07/01 11:19:02;;;;;;;1.53;1.40;;;14.90;99.90;;;;;;5054698;28;20212;-74
2022/07/01 11:21:30;;;;;;;1.57;1.40;;;14.80;99.90;;;;;;5054764;28;20255;-77
2022/07/01 11:23:58;;;;;;;2.40;1.30;;;14.80;99.90;;;;;;5054666;28;20197;-76
2022/07/01 11:26:27;;;;;;;3.23;1.30;;;15.10;99.90;;;;;;5054899;28;20291;-75
2022/07/01 11:28:55;;;;;;;1.60;1.20;;;15.20;99.90;;;;;;5054509;28;20200;-76
2022/07/01 11:31:34;;;;;;;3.47;1.57;;;15.30;99.90;;;;;;5054984;28;20262;-74
2022/07/01 11:34:04;;;;;;;1.30;1.20;;;15.30;99.90;;;;;;5053836;28;20264;-78
2022/07/01 11:39:27;;;;;;;1.80;1.60;;;15.00;99.90;;;;;;5034607;28;20212;-77
2022/07/01 11:41:57;;;;;;;1.47;1.37;;;14.90;99.90;;;;;;5052639;28;20269;-75
2022/07/01 11:44:33;;;;;;;1.93;1.47;;;15.00;99.90;;;;;;5054923;28;20201;-76
2022/07/01 11:47:02;;;;;;;3.03;1.50;;;15.10;99.90;;;;;;5054769;28;20235;-77
2022/07/01 11:49:33;;;;;;;1.50;1.40;;;15.10;99.90;;;;;;5034630;28;20216;-76
2022/07/01 11:52:04;;;;;;;1.90;1.30;;;15.20;99.90;;;;;;5053100;28;20197;-77
2022/07/01 11:54:38;;;;;;;1.40;1.30;;;15.20;99.90;;;;;;5040618;28;20226;-76
2022/07/01 11:57:11;;;;;;;1.50;1.40;;;15.20;99.90;;;;;;5054309;28;20227;-75
2022/07/01 11:59:40;;;;;;;2.30;1.50;;;15.10;99.90;;;;;;5053651;28;20739;-74
2022/07/01 12:02:11;;;;;;;2.60;1.67;;;15.10;99.90;;;;;;5054032;28;20211;-76
2022/07/01 12:04:42;;;;;;;2.00;1.53;;;15.00;99.90;;;;;;5054502;28;20251;-77
2022/07/01 12:07:15;;;;;;;2.80;1.63;;;15.00;99.90;;;;;;5054549;28;20616;-78
2022/07/01 12:09:44;;;;;;;1.90;1.70;;;15.00;99.90;;;;;;5054904;28;20733;-78
2022/07/01 12:12:17;;;;;;;2.13;1.60;;;15.00;99.90;;;;;;5038272;28;20233;-76
2022/07/01 12:14:53;;;;;;;2.07;1.83;;;15.00;99.90;;;;;;5053689;28;20231;-75
2022/07/01 12:17:22;;;;;;;5.03;1.80;;;15.00;99.90;;;;;;5054386;28;20239;-76
2022/07/01 12:19:53;;;;;;;2.03;1.83;;;14.90;99.90;;;;;;5059546;28;20212;-77
2022/07/01 12:22:24;;;;;;;2.43;2.20;;;14.80;99.90;;;;;;5058152;28;20713;-77
2022/07/01 12:25:05;;;;;;;3.33;2.73;;;14.80;99.90;;;;;;5056075;28;20204;-76
2022/07/01 12:27:35;;;;;;;3.13;2.50;;;14.80;99.90;;;;;;5055833;28;20208;-77
2022/07/01 12:30:04;;;;;;;7.10;3.47;;;14.80;99.90;;;;;;5055949;28;20208;-78
2022/07/01 12:32:35;;;;;;;3.47;2.90;;;14.90;99.90;;;;;;5057018;28;20204;-81
2022/07/01 12:35:33;;;;;;;3.53;2.77;;;15.00;99.90;;;;;;5056488;28;20236;-80
2022/07/01 12:37:55;;;;;;;4.10;2.50;;;15.00;99.90;;;;;;5056256;28;20220;-79
2022/07/01 12:40:27;;;;;;;4.00;2.50;;;15.20;99.90;;;;;;5055940;28;20252;-79
2022/07/01 12:42:56;;;;;;;2.80;2.60;;;15.50;99.90;;;;;;5054509;28;20622;-78
2022/07/01 12:45:26;;;;;;;4.43;2.80;;;15.60;99.90;;;;;;5054322;28;20208;-77
2022/07/01 12:47:57;;;;;;;2.87;2.40;;;15.70;99.90;;;;;;5054872;28;20705;-78
2022/07/01 12:50:31;;;;;;;2.80;2.43;;;15.70;99.90;;;;;;5058721;28;20232;-77
2022/07/01 12:53:01;;;;;;;2.37;2.17;;;15.80;99.90;;;;;;5055034;28;20566;-76
2022/07/01 12:55:33;;;;;;;2.80;2.57;;;15.70;99.90;;;;;;5053898;28;20228;-76
2022/07/01 12:58:04;;;;;;;3.73;2.50;;;15.50;99.90;;;;;;5053782;28;20193;-76
2022/07/01 13:00:34;;;;;;;3.27;2.97;;;15.30;99.90;;;;;;5053250;28;20208;-76
2022/07/01 13:03:04;;;;;;;2.90;2.70;;;15.20;99.90;;;;;;5053332;28;20223;-75
2022/07/01 13:05:35;;;;;;;5.23;3.10;;;15.10;99.90;;;;;;5052726;28;20251;-76
2022/07/01 13:08:04;;;;;;;3.00;2.80;;;15.00;99.90;;;;;;5052744;28;20219;-73
2022/07/01 13:10:33;;;;;;;2.70;2.50;;;14.90;99.90;;;;;;5052215;28;20275;-76
2022/07/01 13:13:03;;;;;;;2.20;2.00;;;14.80;99.90;;;;;;5053037;28;20656;-74
2022/07/01 13:15:31;;;;;;;2.10;1.90;;;14.70;99.90;;;;;;5052750;28;20232;-75
2022/07/01 13:18:00;;;;;;;3.50;1.73;;;14.70;99.90;;;;;;5040578;28;20291;-76